PROFILE

 METAR AND TAF INFORMATION
ADDS - METARS form results

(0948 UTC 18 May 2022)
http://aviationweather.gov/metar/data/
 
ENHF 180920Z 36008KT 310V030 9999 SCT023 BKN035 02/M03 Q1017 RMK WIND 1254FT 34022KT
ENHF 180850Z AUTO 36008KT 310V030 9999 UP SCT024/// OVC037/// 02/M03 Q1017 RMK WIND 1254FT 34022KT
TAF ENHF 180800Z 1809/1818 35009KT 9999 FEW015 BKN030 

 AIRPORT MAP

 RUNWAY INFORMATION
Runway 05 Runway length 2894 ft Runway width 0 ft
Runway elevation 259 ft Runway displaced threshold 0 ft Runway heading 0
Runway 23 Runway length 2894 ft Runway width 0 ft
Runway elevation 260 ft Runway displaced threshold 0 ft Runway heading 0

 AIRPORT FREQUENCIES

 AIRPORT NEAR NAVIGATION AIDS
Type VOR-DME Name Hammerfest Frequency 112400 KHZ